sensor_id;sensor_type;location;lat;lon;timestamp;P1;durP1;ratioP1;P2;durP2;ratioP2
7983;SDS011;4037;47.980;10.172;2023-02-01T00:01:22;9.20;;;7.50;;
7983;SDS011;4037;47.980;10.172;2023-02-01T00:03:48;9.47;;;7.40;;
7983;SDS011;4037;47.980;10.172;2023-02-01T00:06:14;8.80;;;7.20;;
7983;SDS011;4037;47.980;10.172;2023-02-01T00:08:40;10.73;;;7.30;;
7983;SDS011;4037;47.980;10.172;2023-02-01T00:11:07;10.90;;;8.00;;
7983;SDS011;4037;47.980;10.172;2023-02-01T00:13:35;10.93;;;7.07;;
7983;SDS011;4037;47.980;10.172;2023-02-01T00:16:06;12.00;;;8.07;;
7983;SDS011;4037;47.980;10.172;2023-02-01T00:18:32;11.03;;;7.10;;
7983;SDS011;4037;47.980;10.172;2023-02-01T00:20:58;12.83;;;8.00;;
7983;SDS011;4037;47.980;10.172;2023-02-01T00:23:24;10.70;;;7.03;;
7983;SDS011;4037;47.980;10.172;2023-02-01T00:25:50;13.97;;;8.27;;
7983;SDS011;4037;47.980;10.172;2023-02-01T00:28:16;8.83;;;6.53;;
7983;SDS011;4037;47.980;10.172;2023-02-01T00:30:42;10.50;;;7.47;;
7983;SDS011;4037;47.980;10.172;2023-02-01T00:33:08;8.97;;;7.00;;
7983;SDS011;4037;47.980;10.172;2023-02-01T00:35:35;11.20;;;7.63;;
7983;SDS011;4037;47.980;10.172;2023-02-01T00:38:01;10.73;;;7.10;;
7983;SDS011;4037;47.980;10.172;2023-02-01T00:40:27;10.47;;;7.63;;
7983;SDS011;4037;47.980;10.172;2023-02-01T00:42:53;10.17;;;7.43;;
7983;SDS011;4037;47.980;10.172;2023-02-01T00:45:19;11.00;;;6.77;;
7983;SDS011;4037;47.980;10.172;2023-02-01T00:47:45;10.67;;;7.53;;
7983;SDS011;4037;47.980;10.172;2023-02-01T00:50:11;12.63;;;7.40;;
7983;SDS011;4037;47.980;10.172;2023-02-01T00:52:37;9.30;;;7.40;;
7983;SDS011;4037;47.980;10.172;2023-02-01T00:55:03;10.20;;;7.30;;
7983;SDS011;4037;47.980;10.172;2023-02-01T00:57:30;10.40;;;7.53;;
7983;SDS011;4037;47.980;10.172;2023-02-01T00:59:56;10.70;;;8.00;;
7983;SDS011;4037;47.980;10.172;2023-02-01T01:02:22;14.27;;;7.37;;
7983;SDS011;4037;47.980;10.172;2023-02-01T01:04:48;12.23;;;7.93;;
7983;SDS011;4037;47.980;10.172;2023-02-01T01:07:14;8.70;;;7.37;;
7983;SDS011;4037;47.980;10.172;2023-02-01T01:09:40;10.37;;;7.27;;
7983;SDS011;4037;47.980;10.172;2023-02-01T01:12:06;11.33;;;7.13;;
7983;SDS011;4037;47.980;10.172;2023-02-01T01:14:32;9.17;;;7.00;;
7983;SDS011;4037;47.980;10.172;2023-02-01T01:16:58;11.43;;;7.43;;
7983;SDS011;4037;47.980;10.172;2023-02-01T01:19:24;12.13;;;7.97;;
7983;SDS011;4037;47.980;10.172;2023-02-01T01:21:50;9.23;;;6.77;;
7983;SDS011;4037;47.980;10.172;2023-02-01T01:24:16;10.57;;;8.00;;
7983;SDS011;4037;47.980;10.172;2023-02-01T01:26:42;13.23;;;7.20;;
7983;SDS011;4037;47.980;10.172;2023-02-01T01:29:08;9.17;;;6.57;;
7983;SDS011;4037;47.980;10.172;2023-02-01T01:31:36;12.30;;;7.27;;
7983;SDS011;4037;47.980;10.172;2023-02-01T01:34:02;10.63;;;7.63;;
7983;SDS011;4037;47.980;10.172;2023-02-01T01:36:28;11.00;;;7.33;;
7983;SDS011;4037;47.980;10.172;2023-02-01T01:38:54;11.27;;;7.53;;
7983;SDS011;4037;47.980;10.172;2023-02-01T01:41:22;10.03;;;7.47;;
7983;SDS011;4037;47.980;10.172;2023-02-01T01:46:31;9.37;;;6.53;;
7983;SDS011;4037;47.980;10.172;2023-02-01T01:49:16;9.47;;;6.73;;
7983;SDS011;4037;47.980;10.172;2023-02-01T01:51:44;10.27;;;6.77;;
7983;SDS011;4037;47.980;10.172;2023-02-01T01:54:14;8.27;;;6.03;;
7983;SDS011;4037;47.980;10.172;2023-02-01T01:56:42;10.37;;;6.90;;
7983;SDS011;4037;47.980;10.172;2023-02-01T01:59:09;8.37;;;7.03;;
7983;SDS011;4037;47.980;10.172;2023-02-01T02:01:35;7.90;;;6.27;;
7983;SDS011;4037;47.980;10.172;2023-02-01T02:04:01;11.50;;;7.37;;
7983;SDS011;4037;47.980;10.172;2023-02-01T02:06:31;11.00;;;6.93;;
7983;SDS011;4037;47.980;10.172;2023-02-01T02:09:00;9.17;;;6.40;;
7983;SDS011;4037;47.980;10.172;2023-02-01T02:11:27;9.40;;;7.00;;
7983;SDS011;4037;47.980;10.172;2023-02-01T02:13:53;7.33;;;5.73;;
7983;SDS011;4037;47.980;10.172;2023-02-01T02:26:54;9.33;;;6.63;;
7983;SDS011;4037;47.980;10.172;2023-02-01T02:39:39;10.03;;;6.63;;
7983;SDS011;4037;47.980;10.172;2023-02-01T02:42:14;8.80;;;6.60;;
7983;SDS011;4037;47.980;10.172;2023-02-01T02:45:04;10.70;;;7.20;;
7983;SDS011;4037;47.980;10.172;2023-02-01T02:47:54;9.47;;;6.37;;
7983;SDS011;4037;47.980;10.172;2023-02-01T02:50:34;9.13;;;6.80;;
7983;SDS011;4037;47.980;10.172;2023-02-01T02:53:25;8.00;;;6.37;;
7983;SDS011;4037;47.980;10.172;2023-02-01T02:56:12;8.30;;;6.03;;
7983;SDS011;4037;47.980;10.172;2023-02-01T02:58:57;13.33;;;6.70;;
7983;SDS011;4037;47.980;10.172;2023-02-01T03:01:42;8.60;;;6.27;;
7983;SDS011;4037;47.980;10.172;2023-02-01T03:04:27;7.10;;;5.80;;
7983;SDS011;4037;47.980;10.172;2023-02-01T03:06:54;8.73;;;6.33;;
7983;SDS011;4037;47.980;10.172;2023-02-01T03:09:31;8.47;;;6.03;;
7983;SDS011;4037;47.980;10.172;2023-02-01T03:12:00;9.13;;;6.23;;
7983;SDS011;4037;47.980;10.172;2023-02-01T03:14:46;11.03;;;6.33;;
7983;SDS011;4037;47.980;10.172;2023-02-01T03:17:15;7.97;;;6.07;;
7983;SDS011;4037;47.980;10.172;2023-02-01T03:19:45;9.13;;;6.07;;
7983;SDS011;4037;47.980;10.172;2023-02-01T03:22:15;8.73;;;6.23;;
7983;SDS011;4037;47.980;10.172;2023-02-01T03:24:46;11.10;;;5.73;;
7983;SDS011;4037;47.980;10.172;2023-02-01T03:27:17;8.23;;;6.47;;
7983;SDS011;4037;47.980;10.172;2023-02-01T03:29:45;9.60;;;6.23;;
7983;SDS011;4037;47.980;10.172;2023-02-01T03:32:14;7.97;;;6.67;;
7983;SDS011;4037;47.980;10.172;2023-02-01T03:34:40;8.57;;;5.80;;
7983;SDS011;4037;47.980;10.172;2023-02-01T03:37:08;8.67;;;6.27;;
7983;SDS011;4037;47.980;10.172;2023-02-01T03:39:39;8.40;;;6.57;;
7983;SDS011;4037;47.980;10.172;2023-02-01T03:42:21;8.83;;;5.30;;
7983;SDS011;4037;47.980;10.172;2023-02-01T03:44:51;7.43;;;6.53;;
7983;SDS011;4037;47.980;10.172;2023-02-01T03:47:23;9.80;;;6.10;;
7983;SDS011;4037;47.980;10.172;2023-02-01T03:49:55;9.17;;;6.47;;
7983;SDS011;4037;47.980;10.172;2023-02-01T03:52:44;8.80;;;6.23;;
7983;SDS011;4037;47.980;10.172;2023-02-01T03:55:09;7.50;;;6.17;;
7983;SDS011;4037;47.980;10.172;2023-02-01T03:57:37;9.30;;;6.73;;
7983;SDS011;4037;47.980;10.172;2023-02-01T04:00:08;8.07;;;6.43;;
7983;SDS011;4037;47.980;10.172;2023-02-01T04:02:35;7.93;;;6.23;;
7983;SDS011;4037;47.980;10.172;2023-02-01T04:05:01;9.87;;;6.23;;
7983;SDS011;4037;47.980;10.172;2023-02-01T04:07:27;9.27;;;6.57;;
7983;SDS011;4037;47.980;10.172;2023-02-01T04:09:53;8.27;;;5.93;;
7983;SDS011;4037;47.980;10.172;2023-02-01T04:12:19;8.43;;;6.17;;
7983;SDS011;4037;47.980;10.172;2023-02-01T04:14:45;7.57;;;6.47;;
7983;SDS011;4037;47.980;10.172;2023-02-01T04:17:11;7.60;;;6.10;;
7983;SDS011;4037;47.980;10.172;2023-02-01T04:19:36;7.83;;;5.37;;
7983;SDS011;4037;47.980;10.172;2023-02-01T04:22:02;8.77;;;6.70;;
7983;SDS011;4037;47.980;10.172;2023-02-01T04:24:28;9.50;;;6.83;;
7983;SDS011;4037;47.980;10.172;2023-02-01T04:26:55;7.77;;;6.50;;
7983;SDS011;4037;47.980;10.172;2023-02-01T04:29:20;10.80;;;7.43;;
7983;SDS011;4037;47.980;10.172;2023-02-01T04:31:46;9.07;;;7.10;;
7983;SDS011;4037;47.980;10.172;2023-02-01T04:34:14;10.07;;;6.90;;
7983;SDS011;4037;47.980;10.172;2023-02-01T04:36:40;9.13;;;6.33;;
7983;SDS011;4037;47.980;10.172;2023-02-01T04:39:06;6.40;;;5.73;;
7983;SDS011;4037;47.980;10.172;2023-02-01T04:41:32;8.30;;;6.83;;
7983;SDS011;4037;47.980;10.172;2023-02-01T04:43:58;9.47;;;6.80;;
7983;SDS011;4037;47.980;10.172;2023-02-01T04:46:24;8.93;;;7.30;;
7983;SDS011;4037;47.980;10.172;2023-02-01T04:48:50;9.93;;;7.00;;
7983;SDS011;4037;47.980;10.172;2023-02-01T04:51:16;12.03;;;7.67;;
7983;SDS011;4037;47.980;10.172;2023-02-01T04:53:43;13.80;;;8.50;;
7983;SDS011;4037;47.980;10.172;2023-02-01T04:56:09;11.97;;;7.93;;
7983;SDS011;4037;47.980;10.172;2023-02-01T04:58:35;12.03;;;7.93;;
7983;SDS011;4037;47.980;10.172;2023-02-01T05:01:04;10.03;;;7.33;;
7983;SDS011;4037;47.980;10.172;2023-02-01T05:03:34;9.60;;;7.87;;
7983;SDS011;4037;47.980;10.172;2023-02-01T05:06:00;10.60;;;7.90;;
7983;SDS011;4037;47.980;10.172;2023-02-01T05:08:28;11.77;;;7.83;;
7983;SDS011;4037;47.980;10.172;2023-02-01T05:10:54;10.63;;;7.93;;
7983;SDS011;4037;47.980;10.172;2023-02-01T05:13:20;9.83;;;7.40;;
7983;SDS011;4037;47.980;10.172;2023-02-01T05:16:05;11.33;;;7.97;;
7983;SDS011;4037;47.980;10.172;2023-02-01T05:18:31;10.77;;;8.07;;
7983;SDS011;4037;47.980;10.172;2023-02-01T05:20:57;10.30;;;8.13;;
7983;SDS011;4037;47.980;10.172;2023-02-01T05:23:23;12.23;;;7.53;;
7983;SDS011;4037;47.980;10.172;2023-02-01T05:25:49;9.97;;;7.73;;
7983;SDS011;4037;47.980;10.172;2023-02-01T05:28:15;10.17;;;7.57;;
7983;SDS011;4037;47.980;10.172;2023-02-01T05:30:41;9.90;;;7.43;;
7983;SDS011;4037;47.980;10.172;2023-02-01T05:33:07;10.83;;;7.37;;
7983;SDS011;4037;47.980;10.172;2023-02-01T05:35:33;9.70;;;6.87;;
7983;SDS011;4037;47.980;10.172;2023-02-01T05:37:59;13.17;;;8.07;;
7983;SDS011;4037;47.980;10.172;2023-02-01T05:40:25;10.03;;;7.63;;
7983;SDS011;4037;47.980;10.172;2023-02-01T05:42:51;9.80;;;7.50;;
7983;SDS011;4037;47.980;10.172;2023-02-01T05:45:17;10.20;;;7.60;;
7983;SDS011;4037;47.980;10.172;2023-02-01T05:47:43;11.17;;;7.53;;
7983;SDS011;4037;47.980;10.172;2023-02-01T05:50:09;9.97;;;7.33;;
7983;SDS011;4037;47.980;10.172;2023-02-01T05:52:35;9.93;;;7.33;;
7983;SDS011;4037;47.980;10.172;2023-02-01T05:55:01;10.80;;;7.63;;
7983;SDS011;4037;47.980;10.172;2023-02-01T05:57:27;8.60;;;6.80;;
7983;SDS011;4037;47.980;10.172;2023-02-01T05:59:53;8.77;;;7.13;;
7983;SDS011;4037;47.980;10.172;2023-02-01T06:02:19;7.57;;;6.53;;
7983;SDS011;4037;47.980;10.172;2023-02-01T06:04:46;8.17;;;7.13;;
7983;SDS011;4037;47.980;10.172;2023-02-01T06:07:12;9.93;;;7.40;;
7983;SDS011;4037;47.980;10.172;2023-02-01T06:09:38;11.77;;;7.80;;
7983;SDS011;4037;47.980;10.172;2023-02-01T06:12:04;9.63;;;7.23;;
7983;SDS011;4037;47.980;10.172;2023-02-01T06:14:30;11.03;;;7.60;;
7983;SDS011;4037;47.980;10.172;2023-02-01T06:16:56;11.10;;;7.60;;
7983;SDS011;4037;47.980;10.172;2023-02-01T06:19:23;10.87;;;7.70;;
7983;SDS011;4037;47.980;10.172;2023-02-01T06:21:49;8.10;;;7.23;;
7983;SDS011;4037;47.980;10.172;2023-02-01T06:24:15;9.60;;;6.50;;
7983;SDS011;4037;47.980;10.172;2023-02-01T06:26:41;8.33;;;6.90;;
7983;SDS011;4037;47.980;10.172;2023-02-01T06:29:09;10.03;;;7.23;;
7983;SDS011;4037;47.980;10.172;2023-02-01T06:31:35;11.07;;;7.27;;
7983;SDS011;4037;47.980;10.172;2023-02-01T06:34:01;12.43;;;7.47;;
7983;SDS011;4037;47.980;10.172;2023-02-01T06:36:27;8.57;;;6.97;;
7983;SDS011;4037;47.980;10.172;2023-02-01T06:38:54;8.77;;;6.90;;
7983;SDS011;4037;47.980;10.172;2023-02-01T06:41:21;9.70;;;6.87;;
7983;SDS011;4037;47.980;10.172;2023-02-01T06:43:47;9.90;;;6.77;;
7983;SDS011;4037;47.980;10.172;2023-02-01T06:46:14;9.83;;;7.20;;
7983;SDS011;4037;47.980;10.172;2023-02-01T06:48:40;10.43;;;8.07;;
7983;SDS011;4037;47.980;10.172;2023-02-01T06:51:06;9.13;;;6.97;;
7983;SDS011;4037;47.980;10.172;2023-02-01T06:53:41;8.70;;;7.43;;
7983;SDS011;4037;47.980;10.172;2023-02-01T06:56:08;8.20;;;7.23;;
7983;SDS011;4037;47.980;10.172;2023-02-01T06:58:34;12.57;;;7.97;;
7983;SDS011;4037;47.980;10.172;2023-02-01T07:01:04;9.80;;;7.53;;
7983;SDS011;4037;47.980;10.172;2023-02-01T07:03:30;10.57;;;7.60;;
7983;SDS011;4037;47.980;10.172;2023-02-01T07:05:56;9.40;;;7.40;;
7983;SDS011;4037;47.980;10.172;2023-02-01T07:08:28;10.53;;;7.53;;
7983;SDS011;4037;47.980;10.172;2023-02-01T07:10:54;9.73;;;7.43;;
7983;SDS011;4037;47.980;10.172;2023-02-01T07:13:20;10.07;;;7.90;;
7983;SDS011;4037;47.980;10.172;2023-02-01T07:15:46;9.80;;;6.67;;
7983;SDS011;4037;47.980;10.172;2023-02-01T07:18:13;8.40;;;7.07;;
7983;SDS011;4037;47.980;10.172;2023-02-01T07:20:39;10.20;;;6.80;;
7983;SDS011;4037;47.980;10.172;2023-02-01T07:23:05;9.03;;;7.13;;
7983;SDS011;4037;47.980;10.172;2023-02-01T07:25:31;9.87;;;6.93;;
7983;SDS011;4037;47.980;10.172;2023-02-01T07:27:57;12.77;;;7.30;;
7983;SDS011;4037;47.980;10.172;2023-02-01T07:30:23;12.33;;;7.70;;
7983;SDS011;4037;47.980;10.172;2023-02-01T07:32:50;7.23;;;6.20;;
7983;SDS011;4037;47.980;10.172;2023-02-01T07:35:16;9.87;;;6.93;;
7983;SDS011;4037;47.980;10.172;2023-02-01T07:37:42;7.87;;;6.47;;
7983;SDS011;4037;47.980;10.172;2023-02-01T07:40:09;7.70;;;6.80;;
7983;SDS011;4037;47.980;10.172;2023-02-01T07:42:35;10.07;;;7.00;;
7983;SDS011;4037;47.980;10.172;2023-02-01T07:45:01;9.87;;;6.83;;
7983;SDS011;4037;47.980;10.172;2023-02-01T07:47:28;6.97;;;6.00;;
7983;SDS011;4037;47.980;10.172;2023-02-01T07:49:54;10.27;;;6.63;;
7983;SDS011;4037;47.980;10.172;2023-02-01T07:52:20;7.67;;;6.57;;
7983;SDS011;4037;47.980;10.172;2023-02-01T07:54:46;10.30;;;6.77;;
7983;SDS011;4037;47.980;10.172;2023-02-01T07:57:12;9.43;;;6.43;;
7983;SDS011;4037;47.980;10.172;2023-02-01T07:59:38;9.93;;;6.67;;
7983;SDS011;4037;47.980;10.172;2023-02-01T08:02:24;8.13;;;5.77;;
7983;SDS011;4037;47.980;10.172;2023-02-01T08:04:50;7.57;;;6.30;;
7983;SDS011;4037;47.980;10.172;2023-02-01T08:07:16;7.87;;;6.13;;
7983;SDS011;4037;47.980;10.172;2023-02-01T08:09:42;9.27;;;6.93;;
7983;SDS011;4037;47.980;10.172;2023-02-01T08:12:08;6.87;;;5.37;;
7983;SDS011;4037;47.980;10.172;2023-02-01T08:14:34;8.50;;;6.93;;
7983;SDS011;4037;47.980;10.172;2023-02-01T08:17:00;8.53;;;6.53;;
7983;SDS011;4037;47.980;10.172;2023-02-01T08:19:26;7.50;;;5.83;;
7983;SDS011;4037;47.980;10.172;2023-02-01T08:21:52;6.63;;;5.63;;
7983;SDS011;4037;47.980;10.172;2023-02-01T08:24:18;8.07;;;6.17;;
7983;SDS011;4037;47.980;10.172;2023-02-01T08:26:44;7.33;;;6.03;;
7983;SDS011;4037;47.980;10.172;2023-02-01T08:29:10;10.37;;;5.87;;
7983;SDS011;4037;47.980;10.172;2023-02-01T08:31:38;8.83;;;6.30;;
7983;SDS011;4037;47.980;10.172;2023-02-01T08:34:08;7.97;;;6.10;;
7983;SDS011;4037;47.980;10.172;2023-02-01T08:36:34;8.27;;;6.10;;
7983;SDS011;4037;47.980;10.172;2023-02-01T08:39:01;7.47;;;6.20;;
7983;SDS011;4037;47.980;10.172;2023-02-01T08:41:30;6.87;;;5.47;;
7983;SDS011;4037;47.980;10.172;2023-02-01T08:43:56;7.50;;;6.17;;
7983;SDS011;4037;47.980;10.172;2023-02-01T08:46:23;7.83;;;5.33;;
7983;SDS011;4037;47.980;10.172;2023-02-01T08:48:49;6.40;;;5.53;;
7983;SDS011;4037;47.980;10.172;2023-02-01T08:51:17;6.40;;;5.70;;
7983;SDS011;4037;47.980;10.172;2023-02-01T08:53:43;6.37;;;5.33;;
7983;SDS011;4037;47.980;10.172;2023-02-01T08:56:10;6.60;;;5.27;;
7983;SDS011;4037;47.980;10.172;2023-02-01T08:58:36;5.77;;;4.93;;
7983;SDS011;4037;47.980;10.172;2023-02-01T09:01:06;5.67;;;4.70;;
7983;SDS011;4037;47.980;10.172;2023-02-01T09:03:33;6.53;;;4.90;;
7983;SDS011;4037;47.980;10.172;2023-02-01T09:06:06;7.23;;;4.73;;
7983;SDS011;4037;47.980;10.172;2023-02-01T09:08:33;6.10;;;5.00;;
7983;SDS011;4037;47.980;10.172;2023-02-01T09:11:00;6.17;;;4.70;;
7983;SDS011;4037;47.980;10.172;2023-02-01T09:13:26;5.30;;;4.80;;
7983;SDS011;4037;47.980;10.172;2023-02-01T09:15:52;7.07;;;5.03;;
7983;SDS011;4037;47.980;10.172;2023-02-01T09:18:18;6.50;;;4.73;;
7983;SDS011;4037;47.980;10.172;2023-02-01T09:20:44;8.03;;;4.67;;
7983;SDS011;4037;47.980;10.172;2023-02-01T09:23:10;6.27;;;5.17;;
7983;SDS011;4037;47.980;10.172;2023-02-01T09:25:36;7.47;;;5.23;;
7983;SDS011;4037;47.980;10.172;2023-02-01T09:28:03;5.83;;;5.23;;
7983;SDS011;4037;47.980;10.172;2023-02-01T09:30:31;6.70;;;5.70;;
7983;SDS011;4037;47.980;10.172;2023-02-01T09:32:57;10.33;;;6.13;;
7983;SDS011;4037;47.980;10.172;2023-02-01T09:35:23;6.90;;;5.13;;
7983;SDS011;4037;47.980;10.172;2023-02-01T09:37:49;7.17;;;5.27;;
7983;SDS011;4037;47.980;10.172;2023-02-01T09:40:15;7.30;;;5.27;;
7983;SDS011;4037;47.980;10.172;2023-02-01T09:45:17;7.37;;;5.33;;
7983;SDS011;4037;47.980;10.172;2023-02-01T09:47:46;9.00;;;5.30;;
7983;SDS011;4037;47.980;10.172;2023-02-01T09:50:16;7.10;;;5.10;;
7983;SDS011;4037;47.980;10.172;2023-02-01T09:55:36;7.13;;;5.73;;
7983;SDS011;4037;47.980;10.172;2023-02-01T09:58:05;6.83;;;5.37;;
7983;SDS011;4037;47.980;10.172;2023-02-01T10:00:37;10.17;;;5.63;;
7983;SDS011;4037;47.980;10.172;2023-02-01T10:03:03;6.60;;;5.13;;
7983;SDS011;4037;47.980;10.172;2023-02-01T10:10:47;9.10;;;6.17;;
7983;SDS011;4037;47.980;10.172;2023-02-01T10:28:29;9.40;;;6.60;;
7983;SDS011;4037;47.980;10.172;2023-02-01T10:30:58;7.23;;;5.33;;
7983;SDS011;4037;47.980;10.172;2023-02-01T10:35:54;7.67;;;5.93;;
7983;SDS011;4037;47.980;10.172;2023-02-01T10:38:27;6.43;;;5.73;;
7983;SDS011;4037;47.980;10.172;2023-02-01T10:40:55;6.67;;;5.43;;
7983;SDS011;4037;47.980;10.172;2023-02-01T10:43:22;7.93;;;6.07;;
7983;SDS011;4037;47.980;10.172;2023-02-01T10:45:48;10.90;;;5.83;;
7983;SDS011;4037;47.980;10.172;2023-02-01T10:48:14;7.27;;;5.33;;
7983;SDS011;4037;47.980;10.172;2023-02-01T10:50:46;7.20;;;5.50;;
7983;SDS011;4037;47.980;10.172;2023-02-01T10:53:20;6.80;;;6.03;;
7983;SDS011;4037;47.980;10.172;2023-02-01T10:55:48;7.93;;;6.33;;
7983;SDS011;4037;47.980;10.172;2023-02-01T10:58:16;6.33;;;4.90;;
7983;SDS011;4037;47.980;10.172;2023-02-01T11:00:44;7.50;;;4.87;;
7983;SDS011;4037;47.980;10.172;2023-02-01T11:04:11;7.47;;;5.53;;
7983;SDS011;4037;47.980;10.172;2023-02-01T11:08:52;7.13;;;5.73;;
7983;SDS011;4037;47.980;10.172;2023-02-01T11:11:18;9.40;;;5.60;;
7983;SDS011;4037;47.980;10.172;2023-02-01T11:13:45;6.20;;;5.20;;
7983;SDS011;4037;47.980;10.172;2023-02-01T11:16:17;7.40;;;5.73;;
7983;SDS011;4037;47.980;10.172;2023-02-01T11:18:44;5.87;;;4.70;;
7983;SDS011;4037;47.980;10.172;2023-02-01T11:21:11;5.87;;;4.93;;
7983;SDS011;4037;47.980;10.172;2023-02-01T11:23:40;6.13;;;4.70;;
7983;SDS011;4037;47.980;10.172;2023-02-01T11:26:09;6.67;;;5.03;;
7983;SDS011;4037;47.980;10.172;2023-02-01T11:28:37;9.93;;;5.27;;
7983;SDS011;4037;47.980;10.172;2023-02-01T11:31:05;7.57;;;4.97;;
7983;SDS011;4037;47.980;10.172;2023-02-01T11:33:32;6.03;;;4.73;;
7983;SDS011;4037;47.980;10.172;2023-02-01T11:36:00;6.67;;;4.83;;
7983;SDS011;4037;47.980;10.172;2023-02-01T11:38:32;6.70;;;5.20;;
7983;SDS011;4037;47.980;10.172;2023-02-01T11:41:11;5.03;;;4.47;;
7983;SDS011;4037;47.980;10.172;2023-02-01T11:43:38;5.57;;;4.70;;
7983;SDS011;4037;47.980;10.172;2023-02-01T11:46:18;6.17;;;4.73;;
7983;SDS011;4037;47.980;10.172;2023-02-01T11:48:49;6.13;;;4.63;;
7983;SDS011;4037;47.980;10.172;2023-02-01T11:54:03;4.30;;;3.90;;
7983;SDS011;4037;47.980;10.172;2023-02-01T11:56:34;8.13;;;4.37;;
7983;SDS011;4037;47.980;10.172;2023-02-01T12:04:33;5.67;;;4.27;;
7983;SDS011;4037;47.980;10.172;2023-02-01T12:07:12;5.10;;;4.10;;
7983;SDS011;4037;47.980;10.172;2023-02-01T12:12:24;5.40;;;4.03;;
7983;SDS011;4037;47.980;10.172;2023-02-01T12:22:41;4.67;;;3.60;;
7983;SDS011;4037;47.980;10.172;2023-02-01T12:27:46;6.00;;;4.07;;
7983;SDS011;4037;47.980;10.172;2023-02-01T12:40:48;7.90;;;4.40;;
7983;SDS011;4037;47.980;10.172;2023-02-01T12:43:18;6.53;;;4.30;;
7983;SDS011;4037;47.980;10.172;2023-02-01T12:45:58;6.80;;;3.80;;
7983;SDS011;4037;47.980;10.172;2023-02-01T12:48:29;5.10;;;4.47;;
7983;SDS011;4037;47.980;10.172;2023-02-01T12:50:56;6.30;;;4.07;;
7983;SDS011;4037;47.980;10.172;2023-02-01T12:55:57;5.33;;;3.80;;
7983;SDS011;4037;47.980;10.172;2023-02-01T12:58:27;3.87;;;3.57;;
7983;SDS011;4037;47.980;10.172;2023-02-01T13:06:16;5.03;;;4.47;;
7983;SDS011;4037;47.980;10.172;2023-02-01T13:08:48;6.47;;;3.57;;
7983;SDS011;4037;47.980;10.172;2023-02-01T13:11:19;6.60;;;3.67;;
7983;SDS011;4037;47.980;10.172;2023-02-01T13:16:35;5.00;;;3.83;;
7983;SDS011;4037;47.980;10.172;2023-02-01T13:19:21;6.53;;;4.30;;
7983;SDS011;4037;47.980;10.172;2023-02-01T13:21:49;6.13;;;3.53;;
7983;SDS011;4037;47.980;10.172;2023-02-01T13:24:33;4.67;;;3.63;;
7983;SDS011;4037;47.980;10.172;2023-02-01T13:27:00;6.70;;;3.53;;
7983;SDS011;4037;47.980;10.172;2023-02-01T13:29:27;5.33;;;3.27;;
7983;SDS011;4037;47.980;10.172;2023-02-01T13:39:45;7.20;;;3.63;;
7983;SDS011;4037;47.980;10.172;2023-02-01T13:42:21;4.83;;;3.60;;
7983;SDS011;4037;47.980;10.172;2023-02-01T13:44:52;5.47;;;3.50;;
7983;SDS011;4037;47.980;10.172;2023-02-01T13:49:50;7.57;;;4.10;;
7983;SDS011;4037;47.980;10.172;2023-02-01T13:52:38;5.53;;;3.80;;
7983;SDS011;4037;47.980;10.172;2023-02-01T13:55:13;6.87;;;4.43;;
7983;SDS011;4037;47.980;10.172;2023-02-01T13:57:41;8.77;;;4.40;;
7983;SDS011;4037;47.980;10.172;2023-02-01T14:00:30;9.07;;;4.63;;
7983;SDS011;4037;47.980;10.172;2023-02-01T14:10:54;4.73;;;4.07;;
7983;SDS011;4037;47.980;10.172;2023-02-01T14:24:29;5.97;;;3.67;;
7983;SDS011;4037;47.980;10.172;2023-02-01T14:26:46;4.53;;;3.27;;
7983;SDS011;4037;47.980;10.172;2023-02-01T14:31:47;8.30;;;3.90;;
7983;SDS011;4037;47.980;10.172;2023-02-01T14:34:15;5.53;;;3.10;;
7983;SDS011;4037;47.980;10.172;2023-02-01T14:36:44;6.70;;;3.60;;
7983;SDS011;4037;47.980;10.172;2023-02-01T14:39:20;8.67;;;4.30;;
7983;SDS011;4037;47.980;10.172;2023-02-01T14:41:47;5.37;;;3.43;;
7983;SDS011;4037;47.980;10.172;2023-02-01T14:44:14;8.03;;;3.40;;
7983;SDS011;4037;47.980;10.172;2023-02-01T14:49:28;5.60;;;3.37;;
7983;SDS011;4037;47.980;10.172;2023-02-01T14:51:54;5.87;;;3.20;;
7983;SDS011;4037;47.980;10.172;2023-02-01T14:54:22;5.30;;;3.43;;
7983;SDS011;4037;47.980;10.172;2023-02-01T14:56:48;5.50;;;3.47;;
7983;SDS011;4037;47.980;10.172;2023-02-01T14:59:16;7.37;;;4.13;;
7983;SDS011;4037;47.980;10.172;2023-02-01T15:01:50;5.13;;;3.80;;
7983;SDS011;4037;47.980;10.172;2023-02-01T15:04:17;5.07;;;3.50;;
7983;SDS011;4037;47.980;10.172;2023-02-01T15:09:26;6.23;;;3.30;;
7983;SDS011;4037;47.980;10.172;2023-02-01T15:12:03;6.63;;;3.60;;
7983;SDS011;4037;47.980;10.172;2023-02-01T15:14:31;9.93;;;3.20;;
7983;SDS011;4037;47.980;10.172;2023-02-01T15:16:58;7.47;;;3.30;;
7983;SDS011;4037;47.980;10.172;2023-02-01T15:19:25;6.37;;;3.43;;
7983;SDS011;4037;47.980;10.172;2023-02-01T15:21:53;10.93;;;3.57;;
7983;SDS011;4037;47.980;10.172;2023-02-01T15:24:21;6.33;;;3.43;;
7983;SDS011;4037;47.980;10.172;2023-02-01T15:26:47;7.77;;;3.87;;
7983;SDS011;4037;47.980;10.172;2023-02-01T15:29:14;6.77;;;2.77;;
7983;SDS011;4037;47.980;10.172;2023-02-01T15:31:44;7.63;;;4.03;;
7983;SDS011;4037;47.980;10.172;2023-02-01T15:34:11;8.57;;;3.83;;
7983;SDS011;4037;47.980;10.172;2023-02-01T15:36:38;8.10;;;3.27;;
7983;SDS011;4037;47.980;10.172;2023-02-01T15:39:23;8.13;;;2.90;;
7983;SDS011;4037;47.980;10.172;2023-02-01T15:44:21;9.17;;;3.00;;
7983;SDS011;4037;47.980;10.172;2023-02-01T15:46:53;3.50;;;3.10;;
7983;SDS011;4037;47.980;10.172;2023-02-01T15:49:20;11.23;;;3.77;;
7983;SDS011;4037;47.980;10.172;2023-02-01T15:51:48;9.67;;;3.73;;
7983;SDS011;4037;47.980;10.172;2023-02-01T15:54:19;10.20;;;4.30;;
7983;SDS011;4037;47.980;10.172;2023-02-01T15:56:52;9.43;;;3.40;;
7983;SDS011;4037;47.980;10.172;2023-02-01T15:59:21;8.47;;;4.00;;
7983;SDS011;4037;47.980;10.172;2023-02-01T16:01:48;5.00;;;3.57;;
7983;SDS011;4037;47.980;10.172;2023-02-01T16:09:13;6.90;;;2.93;;
7983;SDS011;4037;47.980;10.172;2023-02-01T16:11:41;8.90;;;4.60;;
7983;SDS011;4037;47.980;10.172;2023-02-01T16:14:07;7.20;;;3.33;;
7983;SDS011;4037;47.980;10.172;2023-02-01T16:16:33;7.70;;;3.20;;
7983;SDS011;4037;47.980;10.172;2023-02-01T16:18:59;4.77;;;2.70;;
7983;SDS011;4037;47.980;10.172;2023-02-01T16:21:25;7.40;;;3.30;;
7983;SDS011;4037;47.980;10.172;2023-02-01T16:23:51;5.50;;;3.40;;
7983;SDS011;4037;47.980;10.172;2023-02-01T16:26:18;8.50;;;3.27;;
7983;SDS011;4037;47.980;10.172;2023-02-01T16:28:44;9.57;;;3.57;;
7983;SDS011;4037;47.980;10.172;2023-02-01T16:31:14;6.47;;;3.70;;
7983;SDS011;4037;47.980;10.172;2023-02-01T16:33:44;5.03;;;3.27;;
7983;SDS011;4037;47.980;10.172;2023-02-01T16:36:10;9.57;;;4.23;;
7983;SDS011;4037;47.980;10.172;2023-02-01T16:38:38;7.13;;;3.27;;
7983;SDS011;4037;47.980;10.172;2023-02-01T16:41:04;13.20;;;3.87;;
7983;SDS011;4037;47.980;10.172;2023-02-01T16:43:30;7.80;;;3.17;;
7983;SDS011;4037;47.980;10.172;2023-02-01T16:45:59;8.83;;;3.93;;
7983;SDS011;4037;47.980;10.172;2023-02-01T16:48:29;7.83;;;3.77;;
7983;SDS011;4037;47.980;10.172;2023-02-01T16:50:58;9.60;;;3.67;;
7983;SDS011;4037;47.980;10.172;2023-02-01T16:53:25;9.37;;;4.73;;
7983;SDS011;4037;47.980;10.172;2023-02-01T16:55:52;10.40;;;5.40;;
7983;SDS011;4037;47.980;10.172;2023-02-01T16:58:19;8.53;;;5.00;;
7983;SDS011;4037;47.980;10.172;2023-02-01T17:00:46;5.70;;;3.60;;
7983;SDS011;4037;47.980;10.172;2023-02-01T17:03:12;7.33;;;3.33;;
7983;SDS011;4037;47.980;10.172;2023-02-01T17:06:02;6.03;;;2.97;;
7983;SDS011;4037;47.980;10.172;2023-02-01T17:08:31;9.30;;;3.87;;
7983;SDS011;4037;47.980;10.172;2023-02-01T17:10:58;5.70;;;3.33;;
7983;SDS011;4037;47.980;10.172;2023-02-01T17:13:24;6.97;;;4.27;;
7983;SDS011;4037;47.980;10.172;2023-02-01T17:15:52;8.13;;;3.63;;
7983;SDS011;4037;47.980;10.172;2023-02-01T17:18:20;6.90;;;3.50;;
7983;SDS011;4037;47.980;10.172;2023-02-01T17:20:46;11.50;;;4.27;;
7983;SDS011;4037;47.980;10.172;2023-02-01T17:23:12;9.67;;;3.60;;
7983;SDS011;4037;47.980;10.172;2023-02-01T17:25:39;6.93;;;3.47;;
7983;SDS011;4037;47.980;10.172;2023-02-01T17:28:05;6.23;;;3.43;;